Stolt Effort — ZCSP6 — position and weather

sailwx.info

Track history (hours):
 
Tides and Currents Weather Stations Pressure Air Temp Water Temp Dewpoint Dewpoint Depression Visibility Wind Speed Wind Dir Waves Ship Positions

Stolt Effort

Last reported at 2014-Aug-19 05:20 UTC. Time now 2014-Aug-20 12:41 UTC.
Position N 29°40' E 122°40'.

Length 176 m; draft 10.6 m.

Type: Ship (hazmat cat B). MMSI: 319445000.

Date/timePositionNaut miles runAvg speedWind from/ knotsBaromVisibWave heightAir tempDewpointWater temp
2014-Aug-19 05:20N 29°40' E 122°40'1012.7
2014-Aug-19 04:33N 29°41' E 122°29'1212.5
2014-Aug-19 03:34N 29°47' E 122°16'1111.3
2014-Aug-19 02:33N 29°55' E 122°07'9 8.8
2014-Aug-19 01:32N 29°57' E 121°57'0 0.0
2014-Aug-17 03:33N 29°58' E 121°57'10 9.9
2014-Aug-17 02:33N 29°56' E 122°08'1111.3
2014-Aug-17 01:34N 29°47' E 122°17'1010.0
2014-Aug-17 00:33N 29°43' E 122°27'6 5.8
2014-Aug-16 23:33N 29°39' E 122°33'6 6.1
2014-Aug-16 22:33N 29°35' E 122°37'  
2014-Aug-11 00:18N 22°58' E 119°54'1115.4
2014-Aug-10 23:33N 22°47' E 119°54'1414.3
2014-Aug-10 22:33N 22°32' E 119°54'1413.6
2014-Aug-10 21:33N 22°19' E 119°53'  
Track history (hours):
 
Tides and Currents Weather Stations Pressure Air Temp Water Temp Dewpoint Dewpoint Depression Visibility Wind Speed Wind Dir Waves Ship Positions

Stolt Effort

Last reported at 2014-Aug-19 05:20 UTC. Time now 2014-Aug-20 12:41 UTC.
Position N 29°40' E 122°40'.

Length 176 m; draft 10.6 m.

Type: Ship (hazmat cat B). MMSI: 319445000.

Date/timePositionNaut miles runAvg speedWind from/ knotsBaromVisibWave heightAir tempDewpointWater temp
2014-Aug-19 05:20N 29°40' E 122°40'1012.7
2014-Aug-19 04:33N 29°41' E 122°29'1212.5
2014-Aug-19 03:34N 29°47' E 122°16'1111.3
2014-Aug-19 02:33N 29°55' E 122°07'9 8.8
2014-Aug-19 01:32N 29°57' E 121°57'0 0.0
2014-Aug-17 03:33N 29°58' E 121°57'10 9.9
2014-Aug-17 02:33N 29°56' E 122°08'1111.3
2014-Aug-17 01:34N 29°47' E 122°17'1010.0
2014-Aug-17 00:33N 29°43' E 122°27'6 5.8
2014-Aug-16 23:33N 29°39' E 122°33'6 6.1
2014-Aug-16 22:33N 29°35' E 122°37'  
2014-Aug-11 00:18N 22°58' E 119°54'1115.4
2014-Aug-10 23:33N 22°47' E 119°54'1414.3
2014-Aug-10 22:33N 22°32' E 119°54'1413.6
2014-Aug-10 21:33N 22°19' E 119°53'  

Dump ship's entire track history